sensor_id;sensor_type;location;lat;lon;timestamp;pressure;altitude;pressure_sealevel;temperature;humidity
4814;BME280;15375;48.540;9.268;2022-10-16T00:01:58;97215.38;;;15.36;100.00
4814;BME280;15375;48.540;9.268;2022-10-16T00:04:24;97203.88;;;15.19;100.00
4814;BME280;15375;48.540;9.268;2022-10-16T00:06:49;97215.63;;;15.20;100.00
4814;BME280;15375;48.540;9.268;2022-10-16T00:09:14;97214.81;;;15.10;100.00
4814;BME280;15375;48.540;9.268;2022-10-16T00:11:40;97223.38;;;15.12;100.00
4814;BME280;15375;48.540;9.268;2022-10-16T00:14:15;97210.44;;;14.91;100.00
4814;BME280;15375;48.540;9.268;2022-10-16T00:16:40;97203.50;;;14.78;100.00
4814;BME280;15375;48.540;9.268;2022-10-16T00:19:06;97203.28;;;14.72;100.00
4814;BME280;15375;48.540;9.268;2022-10-16T00:21:32;97201.25;;;14.63;100.00
4814;BME280;15375;48.540;9.268;2022-10-16T00:24:04;97209.78;;;14.65;100.00
4814;BME280;15375;48.540;9.268;2022-10-16T00:26:32;97226.16;;;14.69;100.00
4814;BME280;15375;48.540;9.268;2022-10-16T00:28:57;97212.59;;;14.53;100.00
4814;BME280;15375;48.540;9.268;2022-10-16T00:31:23;97222.63;;;14.47;100.00
4814;BME280;15375;48.540;9.268;2022-10-16T00:33:49;97235.31;;;14.53;100.00
4814;BME280;15375;48.540;9.268;2022-10-16T00:36:17;97225.63;;;14.40;100.00
4814;BME280;15375;48.540;9.268;2022-10-16T00:38:43;97219.47;;;14.36;100.00
4814;BME280;15375;48.540;9.268;2022-10-16T00:41:12;97212.25;;;14.29;100.00
4814;BME280;15375;48.540;9.268;2022-10-16T00:43:41;97233.09;;;14.39;100.00
4814;BME280;15375;48.540;9.268;2022-10-16T00:48:45;97210.63;;;14.19;100.00
4814;BME280;15375;48.540;9.268;2022-10-16T00:51:11;97203.06;;;14.11;100.00
4814;BME280;15375;48.540;9.268;2022-10-16T00:53:37;97219.19;;;14.21;100.00
4814;BME280;15375;48.540;9.268;2022-10-16T00:56:03;97220.50;;;14.17;100.00
4814;BME280;15375;48.540;9.268;2022-10-16T00:58:28;97212.72;;;14.15;100.00
4814;BME280;15375;48.540;9.268;2022-10-16T01:00:54;97226.84;;;14.26;100.00
4814;BME280;15375;48.540;9.268;2022-10-16T01:03:29;97178.22;;;13.92;100.00
4814;BME280;15375;48.540;9.268;2022-10-16T01:06:12;97239.16;;;14.22;100.00
4814;BME280;15375;48.540;9.268;2022-10-16T01:11:32;97220.53;;;14.04;100.00
4814;BME280;15375;48.540;9.268;2022-10-16T01:14:05;97229.72;;;14.10;100.00
4814;BME280;15375;48.540;9.268;2022-10-16T01:16:38;97242.47;;;14.04;100.00
4814;BME280;15375;48.540;9.268;2022-10-16T01:19:23;97235.78;;;14.05;100.00
4814;BME280;15375;48.540;9.268;2022-10-16T01:21:53;97232.59;;;14.06;100.00
4814;BME280;15375;48.540;9.268;2022-10-16T01:24:41;97252.09;;;14.21;100.00
4814;BME280;15375;48.540;9.268;2022-10-16T01:32:20;97255.88;;;14.02;100.00
4814;BME280;15375;48.540;9.268;2022-10-16T01:34:51;97230.78;;;13.91;100.00
4814;BME280;15375;48.540;9.268;2022-10-16T01:37:26;97243.81;;;13.99;100.00
4814;BME280;15375;48.540;9.268;2022-10-16T01:39:57;97221.00;;;13.90;100.00
4814;BME280;15375;48.540;9.268;2022-10-16T01:42:29;97224.09;;;13.92;100.00
4814;BME280;15375;48.540;9.268;2022-10-16T01:44:58;97230.97;;;13.96;100.00
4814;BME280;15375;48.540;9.268;2022-10-16T01:47:26;97224.19;;;13.88;100.00
4814;BME280;15375;48.540;9.268;2022-10-16T01:49:53;97238.53;;;13.92;100.00
4814;BME280;15375;48.540;9.268;2022-10-16T01:52:23;97230.69;;;13.82;100.00
4814;BME280;15375;48.540;9.268;2022-10-16T01:54:52;97210.41;;;13.67;100.00
4814;BME280;15375;48.540;9.268;2022-10-16T01:57:20;97223.22;;;13.70;100.00
4814;BME280;15375;48.540;9.268;2022-10-16T01:59:49;97236.72;;;13.77;100.00
4814;BME280;15375;48.540;9.268;2022-10-16T02:02:18;97224.75;;;13.71;100.00
4814;BME280;15375;48.540;9.268;2022-10-16T02:04:58;97243.84;;;13.87;100.00
4814;BME280;15375;48.540;9.268;2022-10-16T02:07:26;97212.94;;;13.74;100.00
4814;BME280;15375;48.540;9.268;2022-10-16T02:09:52;97225.19;;;13.82;100.00
4814;BME280;15375;48.540;9.268;2022-10-16T02:12:31;97237.97;;;13.97;100.00
4814;BME280;15375;48.540;9.268;2022-10-16T02:14:57;97226.47;;;13.90;100.00
4814;BME280;15375;48.540;9.268;2022-10-16T02:17:23;97226.84;;;13.92;100.00
4814;BME280;15375;48.540;9.268;2022-10-16T02:19:51;97221.22;;;13.83;100.00
4814;BME280;15375;48.540;9.268;2022-10-16T02:22:30;97227.59;;;13.80;100.00
4814;BME280;15375;48.540;9.268;2022-10-16T02:27:47;97231.09;;;13.93;100.00
4814;BME280;15375;48.540;9.268;2022-10-16T02:32:48;97229.66;;;14.01;100.00
4814;BME280;15375;48.540;9.268;2022-10-16T02:35:17;97196.25;;;13.81;100.00
4814;BME280;15375;48.540;9.268;2022-10-16T02:37:44;97234.50;;;13.97;100.00
4814;BME280;15375;48.540;9.268;2022-10-16T02:40:11;97225.03;;;13.98;100.00
4814;BME280;15375;48.540;9.268;2022-10-16T02:42:38;97243.44;;;14.10;100.00
4814;BME280;15375;48.540;9.268;2022-10-16T02:45:05;97222.19;;;14.01;100.00
4814;BME280;15375;48.540;9.268;2022-10-16T02:47:32;97216.41;;;13.99;100.00
4814;BME280;15375;48.540;9.268;2022-10-16T02:49:57;97219.88;;;14.00;100.00
4814;BME280;15375;48.540;9.268;2022-10-16T02:52:22;97211.34;;;13.98;100.00
4814;BME280;15375;48.540;9.268;2022-10-16T02:54:48;97235.88;;;14.14;100.00
4814;BME280;15375;48.540;9.268;2022-10-16T02:57:13;97226.09;;;14.13;100.00
4814;BME280;15375;48.540;9.268;2022-10-16T02:59:39;97219.66;;;14.07;100.00
4814;BME280;15375;48.540;9.268;2022-10-16T03:02:04;97219.31;;;14.05;100.00
4814;BME280;15375;48.540;9.268;2022-10-16T03:04:30;97168.41;;;13.70;100.00
4814;BME280;15375;48.540;9.268;2022-10-16T03:06:55;97200.72;;;13.87;100.00
4814;BME280;15375;48.540;9.268;2022-10-16T03:09:20;97242.47;;;14.17;100.00
4814;BME280;15375;48.540;9.268;2022-10-16T03:11:46;97204.00;;;13.95;100.00
4814;BME280;15375;48.540;9.268;2022-10-16T03:14:11;97192.16;;;13.85;100.00
4814;BME280;15375;48.540;9.268;2022-10-16T03:16:36;97236.22;;;14.03;100.00
4814;BME280;15375;48.540;9.268;2022-10-16T03:19:02;97220.13;;;13.93;100.00
4814;BME280;15375;48.540;9.268;2022-10-16T03:21:27;97223.88;;;13.86;100.00
4814;BME280;15375;48.540;9.268;2022-10-16T03:23:53;97210.59;;;13.72;100.00
4814;BME280;15375;48.540;9.268;2022-10-16T03:26:18;97223.97;;;13.83;100.00
4814;BME280;15375;48.540;9.268;2022-10-16T03:28:43;97226.63;;;13.86;100.00
4814;BME280;15375;48.540;9.268;2022-10-16T03:31:09;97219.28;;;13.83;100.00
4814;BME280;15375;48.540;9.268;2022-10-16T03:33:34;97215.13;;;13.79;100.00
4814;BME280;15375;48.540;9.268;2022-10-16T03:35:59;97219.94;;;13.75;100.00
4814;BME280;15375;48.540;9.268;2022-10-16T03:38:25;97236.81;;;13.86;100.00
4814;BME280;15375;48.540;9.268;2022-10-16T03:40:50;97244.38;;;13.82;100.00
4814;BME280;15375;48.540;9.268;2022-10-16T03:43:16;97230.88;;;13.75;100.00
4814;BME280;15375;48.540;9.268;2022-10-16T03:45:41;97233.06;;;13.80;100.00
4814;BME280;15375;48.540;9.268;2022-10-16T03:48:07;97240.75;;;13.85;100.00
4814;BME280;15375;48.540;9.268;2022-10-16T03:50:32;97234.06;;;13.86;100.00
4814;BME280;15375;48.540;9.268;2022-10-16T03:52:57;97209.09;;;13.71;100.00
4814;BME280;15375;48.540;9.268;2022-10-16T03:55:23;97250.72;;;13.91;100.00
4814;BME280;15375;48.540;9.268;2022-10-16T03:57:48;97232.66;;;13.69;100.00
4814;BME280;15375;48.540;9.268;2022-10-16T04:00:14;97235.72;;;13.71;100.00
4814;BME280;15375;48.540;9.268;2022-10-16T04:02:39;97255.22;;;13.85;100.00
4814;BME280;15375;48.540;9.268;2022-10-16T04:05:05;97248.09;;;13.75;100.00
4814;BME280;15375;48.540;9.268;2022-10-16T04:07:31;97263.69;;;13.78;100.00
4814;BME280;15375;48.540;9.268;2022-10-16T04:09:56;97242.75;;;13.59;100.00
4814;BME280;15375;48.540;9.268;2022-10-16T04:12:24;97249.53;;;13.67;100.00
4814;BME280;15375;48.540;9.268;2022-10-16T04:14:49;97234.53;;;13.59;100.00
4814;BME280;15375;48.540;9.268;2022-10-16T04:17:14;97248.97;;;13.72;100.00
4814;BME280;15375;48.540;9.268;2022-10-16T04:19:40;97259.94;;;13.72;100.00
4814;BME280;15375;48.540;9.268;2022-10-16T04:22:05;97263.69;;;13.78;100.00
4814;BME280;15375;48.540;9.268;2022-10-16T04:24:30;97249.97;;;13.78;100.00
4814;BME280;15375;48.540;9.268;2022-10-16T04:26:56;97251.31;;;13.74;100.00
4814;BME280;15375;48.540;9.268;2022-10-16T04:29:21;97243.50;;;13.72;100.00
4814;BME280;15375;48.540;9.268;2022-10-16T04:31:47;97228.06;;;13.53;100.00
4814;BME280;15375;48.540;9.268;2022-10-16T04:34:12;97258.97;;;13.66;100.00
4814;BME280;15375;48.540;9.268;2022-10-16T04:36:37;97240.34;;;13.49;100.00
4814;BME280;15375;48.540;9.268;2022-10-16T04:39:03;97265.09;;;13.70;100.00
4814;BME280;15375;48.540;9.268;2022-10-16T04:41:28;97234.53;;;13.59;100.00
4814;BME280;15375;48.540;9.268;2022-10-16T04:43:54;97238.47;;;13.58;100.00
4814;BME280;15375;48.540;9.268;2022-10-16T04:46:19;97238.38;;;13.62;100.00
4814;BME280;15375;48.540;9.268;2022-10-16T04:48:44;97226.09;;;13.54;100.00
4814;BME280;15375;48.540;9.268;2022-10-16T04:51:10;97233.31;;;13.60;100.00
4814;BME280;15375;48.540;9.268;2022-10-16T04:53:35;97251.72;;;13.72;100.00
4814;BME280;15375;48.540;9.268;2022-10-16T04:56:01;97262.50;;;13.67;100.00
4814;BME280;15375;48.540;9.268;2022-10-16T04:58:27;97251.63;;;13.51;100.00
4814;BME280;15375;48.540;9.268;2022-10-16T05:00:53;97251.53;;;13.54;100.00
4814;BME280;15375;48.540;9.268;2022-10-16T05:03:18;97261.19;;;13.59;100.00
4814;BME280;15375;48.540;9.268;2022-10-16T05:05:45;97257.22;;;13.60;100.00
4814;BME280;15375;48.540;9.268;2022-10-16T05:08:12;97278.16;;;13.66;100.00
4814;BME280;15375;48.540;9.268;2022-10-16T05:10:38;97267.63;;;13.65;100.00
4814;BME280;15375;48.540;9.268;2022-10-16T05:13:03;97280.44;;;13.68;100.00
4814;BME280;15375;48.540;9.268;2022-10-16T05:15:29;97275.84;;;13.65;100.00
4814;BME280;15375;48.540;9.268;2022-10-16T05:17:55;97286.38;;;13.66;100.00
4814;BME280;15375;48.540;9.268;2022-10-16T05:20:21;97291.75;;;13.70;100.00
4814;BME280;15375;48.540;9.268;2022-10-16T05:22:47;97293.94;;;13.62;100.00
4814;BME280;15375;48.540;9.268;2022-10-16T05:25:12;97284.75;;;13.56;100.00
4814;BME280;15375;48.540;9.268;2022-10-16T05:27:38;97290.09;;;13.60;100.00
4814;BME280;15375;48.540;9.268;2022-10-16T05:30:03;97282.22;;;13.49;100.00
4814;BME280;15375;48.540;9.268;2022-10-16T05:32:29;97275.66;;;13.47;100.00
4814;BME280;15375;48.540;9.268;2022-10-16T05:34:54;97283.88;;;13.47;100.00
4814;BME280;15375;48.540;9.268;2022-10-16T05:37:20;97283.72;;;13.37;100.00
4814;BME280;15375;48.540;9.268;2022-10-16T05:39:45;97298.53;;;13.53;100.00
4814;BME280;15375;48.540;9.268;2022-10-16T05:42:10;97297.75;;;13.52;100.00
4814;BME280;15375;48.540;9.268;2022-10-16T05:44:36;97286.47;;;13.37;100.00
4814;BME280;15375;48.540;9.268;2022-10-16T05:47:01;97291.16;;;13.37;100.00
4814;BME280;15375;48.540;9.268;2022-10-16T05:49:26;97259.59;;;13.20;100.00
4814;BME280;15375;48.540;9.268;2022-10-16T05:51:52;97303.03;;;13.47;100.00
4814;BME280;15375;48.540;9.268;2022-10-16T05:54:17;97299.75;;;13.39;100.00
4814;BME280;15375;48.540;9.268;2022-10-16T05:56:43;97295.00;;;13.27;100.00
4814;BME280;15375;48.540;9.268;2022-10-16T05:59:08;97331.63;;;13.46;100.00
4814;BME280;15375;48.540;9.268;2022-10-16T06:01:33;97323.06;;;13.31;100.00
4814;BME280;15375;48.540;9.268;2022-10-16T06:04:00;97290.94;;;13.19;100.00
4814;BME280;15375;48.540;9.268;2022-10-16T06:06:27;97309.38;;;13.43;100.00
4814;BME280;15375;48.540;9.268;2022-10-16T06:08:54;97323.88;;;13.57;100.00
4814;BME280;15375;48.540;9.268;2022-10-16T06:11:28;97322.25;;;13.72;100.00
4814;BME280;15375;48.540;9.268;2022-10-16T06:13:55;97345.59;;;13.89;100.00
4814;BME280;15375;48.540;9.268;2022-10-16T06:16:26;97353.16;;;13.97;100.00
4814;BME280;15375;48.540;9.268;2022-10-16T06:18:52;97343.09;;;13.94;100.00
4814;BME280;15375;48.540;9.268;2022-10-16T06:21:20;97325.53;;;13.92;100.00
4814;BME280;15375;48.540;9.268;2022-10-16T06:23:46;97349.75;;;14.06;100.00
4814;BME280;15375;48.540;9.268;2022-10-16T06:26:14;97314.00;;;13.97;100.00
4814;BME280;15375;48.540;9.268;2022-10-16T06:28:40;97319.91;;;13.95;100.00
4814;BME280;15375;48.540;9.268;2022-10-16T06:31:08;97330.13;;;13.95;100.00
4814;BME280;15375;48.540;9.268;2022-10-16T06:33:34;97336.28;;;13.86;100.00
4814;BME280;15375;48.540;9.268;2022-10-16T06:36:06;97344.91;;;13.97;100.00
4814;BME280;15375;48.540;9.268;2022-10-16T06:38:32;97356.44;;;14.18;100.00
4814;BME280;15375;48.540;9.268;2022-10-16T06:40:58;97351.31;;;14.32;100.00
4814;BME280;15375;48.540;9.268;2022-10-16T06:43:23;97334.28;;;14.25;100.00
4814;BME280;15375;48.540;9.268;2022-10-16T06:45:52;97364.63;;;14.55;100.00
4814;BME280;15375;48.540;9.268;2022-10-16T06:48:19;97358.97;;;14.50;100.00
4814;BME280;15375;48.540;9.268;2022-10-16T06:50:44;97336.34;;;14.46;100.00
4814;BME280;15375;48.540;9.268;2022-10-16T06:53:19;97367.22;;;14.84;100.00
4814;BME280;15375;48.540;9.268;2022-10-16T06:55:44;97368.50;;;14.92;100.00
4814;BME280;15375;48.540;9.268;2022-10-16T06:58:10;97332.72;;;14.83;100.00
4814;BME280;15375;48.540;9.268;2022-10-16T07:00:35;97349.47;;;14.98;100.00
4814;BME280;15375;48.540;9.268;2022-10-16T07:03:00;97365.75;;;15.14;100.00
4814;BME280;15375;48.540;9.268;2022-10-16T07:05:27;97375.88;;;15.17;100.00
4814;BME280;15375;48.540;9.268;2022-10-16T07:07:52;97362.38;;;15.10;100.00
4814;BME280;15375;48.540;9.268;2022-10-16T07:10:17;97373.69;;;15.12;100.00
4814;BME280;15375;48.540;9.268;2022-10-16T07:12:43;97388.25;;;15.21;100.00
4814;BME280;15375;48.540;9.268;2022-10-16T07:15:10;97384.69;;;15.12;100.00
4814;BME280;15375;48.540;9.268;2022-10-16T07:17:35;97398.75;;;15.14;100.00
4814;BME280;15375;48.540;9.268;2022-10-16T07:20:01;97387.44;;;15.12;100.00
4814;BME280;15375;48.540;9.268;2022-10-16T07:22:28;97396.19;;;15.19;100.00
4814;BME280;15375;48.540;9.268;2022-10-16T07:24:54;97402.84;;;15.31;100.00
4814;BME280;15375;48.540;9.268;2022-10-16T07:27:19;97392.94;;;15.33;100.00
4814;BME280;15375;48.540;9.268;2022-10-16T07:29:53;97402.91;;;15.40;100.00
4814;BME280;15375;48.540;9.268;2022-10-16T07:32:18;97396.94;;;15.54;100.00
4814;BME280;15375;48.540;9.268;2022-10-16T07:34:43;97393.63;;;15.68;100.00
4814;BME280;15375;48.540;9.268;2022-10-16T07:37:09;97418.22;;;15.93;100.00
4814;BME280;15375;48.540;9.268;2022-10-16T07:39:34;97418.91;;;16.07;100.00
4814;BME280;15375;48.540;9.268;2022-10-16T07:41:59;97398.56;;;16.04;100.00
4814;BME280;15375;48.540;9.268;2022-10-16T07:44:25;97434.63;;;16.28;100.00
4814;BME280;15375;48.540;9.268;2022-10-16T07:46:50;97432.94;;;16.30;100.00
4814;BME280;15375;48.540;9.268;2022-10-16T07:49:15;97445.53;;;16.49;100.00
4814;BME280;15375;48.540;9.268;2022-10-16T07:51:41;97458.94;;;16.60;100.00
4814;BME280;15375;48.540;9.268;2022-10-16T07:54:08;97454.22;;;16.70;100.00
4814;BME280;15375;48.540;9.268;2022-10-16T07:56:35;97450.66;;;16.60;100.00
4814;BME280;15375;48.540;9.268;2022-10-16T07:59:00;97439.41;;;16.76;100.00
4814;BME280;15375;48.540;9.268;2022-10-16T08:01:26;97436.69;;;17.03;100.00
4814;BME280;15375;48.540;9.268;2022-10-16T08:03:52;97444.38;;;17.36;100.00
4814;BME280;15375;48.540;9.268;2022-10-16T08:06:19;97469.66;;;17.79;100.00
4814;BME280;15375;48.540;9.268;2022-10-16T08:08:45;97461.06;;;17.87;100.00
4814;BME280;15375;48.540;9.268;2022-10-16T08:11:11;97460.75;;;17.94;100.00
4814;BME280;15375;48.540;9.268;2022-10-16T08:13:36;97477.75;;;18.01;100.00
4814;BME280;15375;48.540;9.268;2022-10-16T08:16:02;97474.53;;;17.94;100.00
4814;BME280;15375;48.540;9.268;2022-10-16T08:18:39;97459.53;;;17.76;100.00
4814;BME280;15375;48.540;9.268;2022-10-16T08:21:07;97445.31;;;17.69;100.00
4814;BME280;15375;48.540;9.268;2022-10-16T08:23:33;97463.00;;;18.13;100.00
4814;BME280;15375;48.540;9.268;2022-10-16T08:26:04;97471.03;;;18.44;100.00
4814;BME280;15375;48.540;9.268;2022-10-16T08:28:30;97454.16;;;18.42;100.00
4814;BME280;15375;48.540;9.268;2022-10-16T08:30:56;97473.19;;;18.49;100.00
4814;BME280;15375;48.540;9.268;2022-10-16T08:33:24;97465.66;;;18.50;100.00
4814;BME280;15375;48.540;9.268;2022-10-16T08:35:52;97470.28;;;18.76;100.00
4814;BME280;15375;48.540;9.268;2022-10-16T08:38:18;97489.16;;;19.10;100.00
4814;BME280;15375;48.540;9.268;2022-10-16T08:40:44;97468.97;;;19.19;100.00
4814;BME280;15375;48.540;9.268;2022-10-16T08:48:47;97491.94;;;19.72;100.00
4814;BME280;15375;48.540;9.268;2022-10-16T08:51:35;97487.34;;;19.55;100.00
4814;BME280;15375;48.540;9.268;2022-10-16T08:54:03;97506.94;;;19.66;100.00
4814;BME280;15375;48.540;9.268;2022-10-16T08:56:29;97500.59;;;19.51;100.00
4814;BME280;15375;48.540;9.268;2022-10-16T08:58:57;97495.63;;;19.55;100.00
4814;BME280;15375;48.540;9.268;2022-10-16T09:01:28;97510.81;;;19.59;100.00
4814;BME280;15375;48.540;9.268;2022-10-16T09:06:58;97507.88;;;19.39;100.00
4814;BME280;15375;48.540;9.268;2022-10-16T09:13:25;97512.06;;;19.58;100.00
4814;BME280;15375;48.540;9.268;2022-10-16T09:15:55;97524.91;;;19.85;100.00
4814;BME280;15375;48.540;9.268;2022-10-16T09:21:21;97519.53;;;20.34;100.00
4814;BME280;15375;48.540;9.268;2022-10-16T09:23:48;97525.50;;;20.77;97.07
4814;BME280;15375;48.540;9.268;2022-10-16T09:26:15;97516.09;;;21.04;96.33
4814;BME280;15375;48.540;9.268;2022-10-16T09:28:42;97506.91;;;21.12;92.80
4814;BME280;15375;48.540;9.268;2022-10-16T09:31:16;97528.72;;;21.39;91.66
4814;BME280;15375;48.540;9.268;2022-10-16T09:33:44;97518.03;;;21.32;91.76
4814;BME280;15375;48.540;9.268;2022-10-16T09:36:12;97514.84;;;21.19;89.84
4814;BME280;15375;48.540;9.268;2022-10-16T09:38:38;97530.41;;;21.02;92.00
4814;BME280;15375;48.540;9.268;2022-10-16T09:41:21;97513.63;;;20.91;93.28
4814;BME280;15375;48.540;9.268;2022-10-16T09:43:55;97519.22;;;20.76;94.92
4814;BME280;15375;48.540;9.268;2022-10-16T09:48:58;97522.09;;;20.67;94.47
4814;BME280;15375;48.540;9.268;2022-10-16T09:51:35;97533.09;;;20.76;96.52
4814;BME280;15375;48.540;9.268;2022-10-16T09:54:01;97538.72;;;20.53;94.41
4814;BME280;15375;48.540;9.268;2022-10-16T09:56:32;97513.91;;;20.29;95.15
4814;BME280;15375;48.540;9.268;2022-10-16T09:59:08;97522.41;;;20.40;99.93
4814;BME280;15375;48.540;9.268;2022-10-16T10:01:39;97531.56;;;20.46;100.00
4814;BME280;15375;48.540;9.268;2022-10-16T10:04:06;97533.09;;;20.47;100.00
4814;BME280;15375;48.540;9.268;2022-10-16T10:06:35;97532.81;;;20.45;100.00
4814;BME280;15375;48.540;9.268;2022-10-16T10:09:25;97539.00;;;20.55;100.00
4814;BME280;15375;48.540;9.268;2022-10-16T10:11:56;97534.13;;;20.20;100.00
4814;BME280;15375;48.540;9.268;2022-10-16T10:14:52;97542.06;;;20.42;100.00
4814;BME280;15375;48.540;9.268;2022-10-16T10:17:18;97530.69;;;20.55;100.00
4814;BME280;15375;48.540;9.268;2022-10-16T10:19:50;97519.63;;;20.55;100.00
4814;BME280;15375;48.540;9.268;2022-10-16T10:22:43;97534.13;;;20.79;100.00
4814;BME280;15375;48.540;9.268;2022-10-16T10:25:14;97540.13;;;20.77;100.00
4814;BME280;15375;48.540;9.268;2022-10-16T10:30:24;97527.53;;;21.46;100.00
4814;BME280;15375;48.540;9.268;2022-10-16T10:35:56;97525.34;;;22.67;92.70
4814;BME280;15375;48.540;9.268;2022-10-16T10:41:14;97525.53;;;22.95;85.88
4814;BME280;15375;48.540;9.268;2022-10-16T10:46:51;97517.69;;;23.95;80.23
4814;BME280;15375;48.540;9.268;2022-10-16T10:54:53;97524.94;;;24.90;66.97
4814;BME280;15375;48.540;9.268;2022-10-16T11:00:21;97513.28;;;24.69;57.83
4814;BME280;15375;48.540;9.268;2022-10-16T11:05:45;97507.19;;;24.93;58.38
4814;BME280;15375;48.540;9.268;2022-10-16T11:16:39;97526.13;;;25.50;57.15
4814;BME280;15375;48.540;9.268;2022-10-16T11:22:01;97504.78;;;25.53;52.42
4814;BME280;15375;48.540;9.268;2022-10-16T11:30:34;97509.78;;;25.71;50.05
4814;BME280;15375;48.540;9.268;2022-10-16T11:33:37;97512.25;;;25.85;52.42
4814;BME280;15375;48.540;9.268;2022-10-16T11:41:39;97510.66;;;25.95;50.52
4814;BME280;15375;48.540;9.268;2022-10-16T11:49:31;97509.88;;;26.00;53.05
4814;BME280;15375;48.540;9.268;2022-10-16T11:57:38;97509.38;;;25.33;52.12
4814;BME280;15375;48.540;9.268;2022-10-16T12:03:11;97505.28;;;25.51;55.83
4814;BME280;15375;48.540;9.268;2022-10-16T12:05:55;97510.94;;;25.97;52.63
4814;BME280;15375;48.540;9.268;2022-10-16T12:08:24;97493.78;;;25.71;49.86
4814;BME280;15375;48.540;9.268;2022-10-16T12:10:50;97499.94;;;25.59;52.48
4814;BME280;15375;48.540;9.268;2022-10-16T12:18:42;97500.66;;;26.17;51.08
4814;BME280;15375;48.540;9.268;2022-10-16T12:21:08;97498.63;;;26.17;52.09
4814;BME280;15375;48.540;9.268;2022-10-16T12:23:46;97506.63;;;26.37;51.50
4814;BME280;15375;48.540;9.268;2022-10-16T12:26:12;97494.16;;;25.97;50.94
4814;BME280;15375;48.540;9.268;2022-10-16T12:28:37;97504.72;;;26.16;50.68
4814;BME280;15375;48.540;9.268;2022-10-16T12:31:06;97501.63;;;26.25;51.03
4814;BME280;15375;48.540;9.268;2022-10-16T12:33:56;97500.91;;;26.19;50.19
4814;BME280;15375;48.540;9.268;2022-10-16T12:38:53;97511.31;;;25.66;52.35
4814;BME280;15375;48.540;9.268;2022-10-16T12:41:30;97508.72;;;25.85;53.37
4814;BME280;15375;48.540;9.268;2022-10-16T12:43:57;97506.78;;;26.10;51.61
4814;BME280;15375;48.540;9.268;2022-10-16T12:49:06;97515.09;;;25.80;53.64
4814;BME280;15375;48.540;9.268;2022-10-16T12:54:10;97481.25;;;25.83;52.70
4814;BME280;15375;48.540;9.268;2022-10-16T12:57:03;97509.78;;;26.23;51.97
4814;BME280;15375;48.540;9.268;2022-10-16T13:02:49;97502.50;;;25.51;50.18
4814;BME280;15375;48.540;9.268;2022-10-16T13:05:57;97506.97;;;25.76;54.64
4814;BME280;15375;48.540;9.268;2022-10-16T13:08:42;97495.75;;;25.87;52.34
4814;BME280;15375;48.540;9.268;2022-10-16T13:11:38;97500.38;;;25.68;52.59
4814;BME280;15375;48.540;9.268;2022-10-16T13:14:36;97500.16;;;25.61;51.29
4814;BME280;15375;48.540;9.268;2022-10-16T13:22:13;97518.56;;;25.91;49.16
4814;BME280;15375;48.540;9.268;2022-10-16T13:24:50;97523.28;;;25.61;49.80
4814;BME280;15375;48.540;9.268;2022-10-16T13:28:01;97513.56;;;25.73;53.05
4814;BME280;15375;48.540;9.268;2022-10-16T13:30:30;97512.34;;;25.63;49.82
4814;BME280;15375;48.540;9.268;2022-10-16T13:33:01;97508.59;;;25.44;50.53
4814;BME280;15375;48.540;9.268;2022-10-16T13:35:30;97521.56;;;25.53;52.15
4814;BME280;15375;48.540;9.268;2022-10-16T13:40:30;97511.22;;;24.98;55.25
4814;BME280;15375;48.540;9.268;2022-10-16T13:42:55;97516.56;;;24.90;54.11
4814;BME280;15375;48.540;9.268;2022-10-16T13:45:23;97502.63;;;24.79;52.83
4814;BME280;15375;48.540;9.268;2022-10-16T13:47:49;97516.03;;;24.75;53.53
4814;BME280;15375;48.540;9.268;2022-10-16T13:50:17;97522.38;;;24.98;55.39
4814;BME280;15375;48.540;9.268;2022-10-16T13:52:43;97507.41;;;25.01;52.89
4814;BME280;15375;48.540;9.268;2022-10-16T13:55:16;97514.50;;;25.18;53.22
4814;BME280;15375;48.540;9.268;2022-10-16T13:57:42;97518.06;;;25.19;53.57
4814;BME280;15375;48.540;9.268;2022-10-16T14:00:26;97503.91;;;24.95;56.30
4814;BME280;15375;48.540;9.268;2022-10-16T14:03:05;97498.56;;;24.58;56.04
4814;BME280;15375;48.540;9.268;2022-10-16T14:05:32;97513.50;;;24.60;56.89
4814;BME280;15375;48.540;9.268;2022-10-16T14:07:58;97519.06;;;24.27;57.83
4814;BME280;15375;48.540;9.268;2022-10-16T14:10:27;97524.38;;;24.14;59.74
4814;BME280;15375;48.540;9.268;2022-10-16T14:13:05;97516.44;;;24.07;59.28
4814;BME280;15375;48.540;9.268;2022-10-16T14:15:33;97527.66;;;24.18;58.31
4814;BME280;15375;48.540;9.268;2022-10-16T14:18:00;97523.88;;;24.21;55.37
4814;BME280;15375;48.540;9.268;2022-10-16T14:20:28;97519.81;;;24.22;58.83
4814;BME280;15375;48.540;9.268;2022-10-16T14:23:04;97518.06;;;24.19;59.17
4814;BME280;15375;48.540;9.268;2022-10-16T14:25:31;97528.19;;;24.28;60.35
4814;BME280;15375;48.540;9.268;2022-10-16T14:28:03;97529.19;;;24.25;60.84
4814;BME280;15375;48.540;9.268;2022-10-16T14:30:33;97534.25;;;24.15;61.65
4814;BME280;15375;48.540;9.268;2022-10-16T14:33:06;97526.31;;;24.02;64.69
4814;BME280;15375;48.540;9.268;2022-10-16T14:35:44;97520.47;;;23.89;66.29
4814;BME280;15375;48.540;9.268;2022-10-16T14:38:19;97515.13;;;23.80;64.67
4814;BME280;15375;48.540;9.268;2022-10-16T14:40:49;97533.63;;;23.83;66.18
4814;BME280;15375;48.540;9.268;2022-10-16T14:43:21;97518.88;;;23.72;63.38
4814;BME280;15375;48.540;9.268;2022-10-16T14:45:53;97525.50;;;23.80;62.52
4814;BME280;15375;48.540;9.268;2022-10-16T14:48:19;97521.94;;;23.79;66.96
4814;BME280;15375;48.540;9.268;2022-10-16T14:50:46;97516.16;;;23.83;66.68
4814;BME280;15375;48.540;9.268;2022-10-16T14:53:11;97521.72;;;23.83;67.74
4814;BME280;15375;48.540;9.268;2022-10-16T14:55:38;97514.88;;;23.78;68.04
4814;BME280;15375;48.540;9.268;2022-10-16T14:58:04;97525.47;;;23.74;65.98
4814;BME280;15375;48.540;9.268;2022-10-16T15:00:30;97529.03;;;23.75;63.21
4814;BME280;15375;48.540;9.268;2022-10-16T15:02:55;97538.66;;;23.79;62.53
4814;BME280;15375;48.540;9.268;2022-10-16T15:05:26;97526.94;;;23.64;64.64
4814;BME280;15375;48.540;9.268;2022-10-16T15:07:56;97547.75;;;23.74;66.63
4814;BME280;15375;48.540;9.268;2022-10-16T15:10:23;97546.25;;;23.73;64.37